Time,TemperatureF,DewpointF,PressureIn,WindDirection,WindDirectionDegrees,WindSpeedMPH,WindSpeedGustMPH,Humidity,HourlyPrecipIn,Conditions,Clouds,dailyrainin,SolarRadiationWatts/m^2,SoftwareType,DateUTC
2013-03-17 00:02:00,68.0,14.0,29.82,East,85,4.0,6.0,12,-99.99,,,-99.99,0.000000,,2013-03-17 06:02:00,
2013-03-17 00:12:00,68.0,14.0,29.82,East,84,4.0,6.0,12,-99.99,,,-99.99,0.000000,,2013-03-17 06:12:00,
2013-03-17 00:22:00,68.0,14.0,29.82,East,84,4.0,6.0,12,-99.99,,,-99.99,0.000000,,2013-03-17 06:22:00,
2013-03-17 00:32:00,67.0,14.0,29.82,ENE,64,6.0,8.0,12,-99.99,,,-99.99,0.000000,,2013-03-17 06:32:00,
2013-03-17 00:42:00,66.0,14.0,29.82,ENE,64,5.0,8.0,13,-99.99,,,-99.99,0.000000,,2013-03-17 06:42:00,
2013-03-17 00:52:00,66.0,14.0,29.82,ENE,64,5.0,8.0,13,-99.99,,,-99.99,0.000000,,2013-03-17 06:52:00,
2013-03-17 01:02:00,66.0,14.0,29.82,ENE,64,5.0,8.0,13,-99.99,,,-99.99,0.000000,,2013-03-17 07:02:00,
2013-03-17 01:12:00,66.0,14.0,29.82,ENE,64,5.0,8.0,13,-99.99,,,-99.99,0.000000,,2013-03-17 07:12:00,
2013-03-17 01:32:00,63.0,13.0,29.82,SSE,154,8.0,10.0,14,-99.99,,,-99.99,0.000000,,2013-03-17 07:32:00,
2013-03-17 01:42:00,60.0,13.0,29.82,SSE,162,7.0,9.0,15,-99.99,,,-99.99,0.000000,,2013-03-17 07:42:00,
2013-03-17 01:52:00,60.0,13.0,29.82,SSE,162,7.0,9.0,15,-99.99,,,-99.99,0.000000,,2013-03-17 07:52:00,
2013-03-17 02:02:00,58.0,13.0,29.82,SSE,161,8.0,10.0,16,-99.99,,,-99.99,0.000000,,2013-03-17 08:02:00,
2013-03-17 02:13:00,58.0,13.0,29.82,SSE,161,9.0,13.0,16,-99.99,,,-99.99,0.000000,,2013-03-17 08:13:00,
2013-03-17 02:22:00,58.0,13.0,29.82,SSE,161,9.0,13.0,16,-99.99,,,-99.99,0.000000,,2013-03-17 08:22:00,
2013-03-17 02:32:00,58.0,13.0,29.82,SSE,161,9.0,13.0,16,-99.99,,,-99.99,0.000000,,2013-03-17 08:32:00,
2013-03-17 02:42:00,62.0,15.0,29.82,SSE,160,3.0,6.0,15,-99.99,,,-99.99,0.000000,,2013-03-17 08:42:00,
2013-03-17 02:52:00,62.0,15.0,29.82,SSE,160,3.0,6.0,15,-99.99,,,-99.99,0.000000,,2013-03-17 08:52:00,
2013-03-17 03:03:00,63.0,15.0,29.82,East,101,1.0,6.0,15,-99.99,,,-99.99,0.000000,,2013-03-17 09:03:00,
2013-03-17 03:12:00,56.0,14.0,29.82,East,83,4.0,7.0,18,-99.99,,,-99.99,0.000000,,2013-03-17 09:12:00,
2013-03-17 03:22:00,56.0,14.0,29.82,East,83,4.0,7.0,18,-99.99,,,-99.99,0.000000,,2013-03-17 09:22:00,
2013-03-17 03:32:00,63.0,16.0,29.82,ENE,67,3.0,12.0,15,-99.99,,,-99.99,0.000000,,2013-03-17 09:32:00,
2013-03-17 03:43:00,64.0,16.0,29.82,NNW,334,4.0,12.0,14,-99.99,,,-99.99,0.000000,,2013-03-17 09:43:00,
2013-03-17 03:53:00,64.0,16.0,29.82,NNW,334,4.0,12.0,14,-99.99,,,-99.99,0.000000,,2013-03-17 09:53:00,
2013-03-17 04:03:00,64.0,16.0,29.82,NNW,334,4.0,12.0,14,-99.99,,,-99.99,0.000000,,2013-03-17 10:03:00,
2013-03-17 04:13:00,62.0,16.0,29.82,NNE,25,6.0,11.0,16,-99.99,,,-99.99,0.000000,,2013-03-17 10:13:00,
2013-03-17 04:23:00,62.0,16.0,29.82,NNE,25,6.0,11.0,16,-99.99,,,-99.99,0.000000,,2013-03-17 10:23:00,
2013-03-17 04:33:00,62.0,16.0,29.82,NNE,25,6.0,11.0,16,-99.99,,,-99.99,0.000000,,2013-03-17 10:33:00,
2013-03-17 04:42:00,62.0,16.0,29.82,NNE,25,6.0,11.0,16,-99.99,,,-99.99,0.000000,,2013-03-17 10:42:00,
2013-03-17 06:43:00,53.0,21.0,29.86,NNE,23,7.0,8.0,28,-99.99,,,-99.99,0.000000,,2013-03-17 12:43:00,
2013-03-17 06:52:00,53.0,21.0,29.86,NNE,23,7.0,8.0,28,-99.99,,,-99.99,0.000000,,2013-03-17 12:52:00,
2013-03-17 07:02:00,51.0,21.0,29.86,NNW,343,3.0,7.0,29,-99.99,,,-99.99,0.000000,,2013-03-17 13:02:00,
2013-03-17 07:12:00,50.0,19.0,29.87,SSW,197,5.0,9.0,30,-99.99,,,-99.99,0.000000,,2013-03-17 13:12:00,
2013-03-17 07:22:00,50.0,19.0,29.87,SSW,197,5.0,9.0,30,-99.99,,,-99.99,0.000000,,2013-03-17 13:22:00,
2013-03-17 07:32:00,50.0,19.0,29.87,SSW,197,4.0,6.0,28,-99.99,,,-99.99,0.000000,,2013-03-17 13:32:00,
2013-03-17 07:42:00,52.0,19.0,29.87,South,171,4.0,6.0,27,-99.99,,,-99.99,2.090000,,2013-03-17 13:42:00,
2013-03-17 07:52:00,52.0,19.0,29.87,South,171,4.0,6.0,27,-99.99,,,-99.99,2.090000,,2013-03-17 13:52:00,
2013-03-17 08:02:00,52.0,20.0,29.87,South,172,4.0,6.0,27,-99.99,,,-99.99,14.640000,,2013-03-17 14:02:00,
2013-03-17 08:12:00,54.0,20.0,29.87,South,189,4.0,7.0,26,-99.99,,,-99.99,52.299999,,2013-03-17 14:12:00,
2013-03-17 08:22:00,54.0,20.0,29.87,South,189,4.0,7.0,26,-99.99,,,-99.99,52.299999,,2013-03-17 14:22:00,
2013-03-17 08:32:00,52.0,19.0,29.87,SSW,194,6.0,7.0,27,-99.99,,,-99.99,112.970001,,2013-03-17 14:32:00,
2013-03-17 08:42:00,52.0,21.0,29.87,South,190,6.0,8.0,29,-99.99,,,-99.99,170.149994,,2013-03-17 14:42:00,
2013-03-17 08:53:00,52.0,21.0,29.87,South,190,6.0,8.0,29,-99.99,,,-99.99,170.149994,,2013-03-17 14:53:00,
2013-03-17 09:02:00,55.0,23.0,29.88,SSW,198,5.0,7.0,29,-99.99,,,-99.99,225.940002,,2013-03-17 15:02:00,
2013-03-17 09:12:00,57.0,25.0,29.88,South,188,4.0,6.0,28,-99.99,,,-99.99,282.420013,,2013-03-17 15:12:00,
2013-03-17 09:23:00,57.0,25.0,29.88,South,188,4.0,6.0,28,-99.99,,,-99.99,282.420013,,2013-03-17 15:23:00,
2013-03-17 09:33:00,60.0,27.0,29.88,South,173,5.0,7.0,28,-99.99,,,-99.99,339.600006,,2013-03-17 15:33:00,
2013-03-17 09:42:00,62.0,29.0,29.88,South,179,4.0,6.0,27,-99.99,,,-99.99,394.690002,,2013-03-17 15:42:00,
2013-03-17 09:53:00,62.0,29.0,29.88,South,179,4.0,6.0,27,-99.99,,,-99.99,394.690002,,2013-03-17 15:53:00,
2013-03-17 10:03:00,62.0,29.0,29.88,South,179,4.0,6.0,27,-99.99,,,-99.99,394.690002,,2013-03-17 16:03:00,
2013-03-17 10:12:00,66.0,27.0,29.89,SSE,150,5.0,8.0,23,-99.99,,,-99.99,473.489990,,2013-03-17 16:12:00,
2013-03-17 10:23:00,66.0,27.0,29.89,SSE,150,5.0,8.0,23,-99.99,,,-99.99,473.489990,,2013-03-17 16:23:00,
2013-03-17 10:33:00,67.0,25.0,29.89,SSE,149,5.0,9.0,20,-99.99,,,-99.99,534.159973,,2013-03-17 16:33:00,
2013-03-17 10:42:00,69.0,25.0,29.89,SSE,153,4.0,9.0,18,-99.99,,,-99.99,585.059998,,2013-03-17 16:42:00,
2013-03-17 10:52:00,69.0,25.0,29.89,SSE,153,4.0,9.0,18,-99.99,,,-99.99,585.059998,,2013-03-17 16:52:00,
2013-03-17 11:02:00,70.0,25.0,29.88,SW,233,3.0,7.0,18,-99.99,,,-99.99,637.359985,,2013-03-17 17:02:00,
2013-03-17 11:12:00,71.0,23.0,29.88,South,187,1.0,6.0,16,-99.99,,,-99.99,676.409973,,2013-03-17 17:12:00,
2013-03-17 11:22:00,71.0,23.0,29.88,South,187,1.0,6.0,16,-99.99,,,-99.99,676.409973,,2013-03-17 17:22:00,
2013-03-17 11:33:00,72.0,23.0,29.88,South,183,2.0,7.0,15,-99.99,,,-99.99,711.979980,,2013-03-17 17:33:00,
2013-03-17 11:42:00,73.0,22.0,29.87,NW,319,4.0,10.0,14,-99.99,,,-99.99,748.239990,,2013-03-17 17:42:00,
2013-03-17 11:53:00,73.0,22.0,29.87,NW,319,4.0,10.0,14,-99.99,,,-99.99,748.239990,,2013-03-17 17:53:00,
2013-03-17 12:02:00,72.0,21.0,29.87,NW,311,12.0,21.0,14,-99.99,,,-99.99,783.109985,,2013-03-17 18:02:00,
2013-03-17 12:12:00,72.0,21.0,29.86,WNW,292,12.0,24.0,14,-99.99,,,-99.99,806.119995,,2013-03-17 18:12:00,
2013-03-17 12:22:00,72.0,21.0,29.86,WNW,292,12.0,24.0,14,-99.99,,,-99.99,806.119995,,2013-03-17 18:22:00,
2013-03-17 12:32:00,73.0,21.0,29.86,WNW,290,15.0,23.0,13,-99.99,,,-99.99,825.640015,,2013-03-17 18:32:00,
2013-03-17 12:42:00,73.0,23.0,29.86,WNW,284,16.0,27.0,15,-99.99,,,-99.99,842.380005,,2013-03-17 18:42:00,
2013-03-17 12:52:00,73.0,23.0,29.86,WNW,284,16.0,27.0,15,-99.99,,,-99.99,842.380005,,2013-03-17 18:52:00,
2013-03-17 13:02:00,73.0,23.0,29.86,WNW,284,16.0,27.0,15,-99.99,,,-99.99,842.380005,,2013-03-17 19:02:00,
2013-03-17 13:12:00,74.0,23.0,29.84,West,279,16.0,25.0,15,-99.99,,,-99.99,869.570007,,2013-03-17 19:12:00,
2013-03-17 13:22:00,74.0,23.0,29.84,West,279,16.0,25.0,15,-99.99,,,-99.99,869.570007,,2013-03-17 19:22:00,
2013-03-17 13:33:00,74.0,23.0,29.84,West,274,16.0,29.0,14,-99.99,,,-99.99,878.640015,,2013-03-17 19:33:00,
2013-03-17 13:42:00,75.0,22.0,29.83,West,273,17.0,29.0,13,-99.99,,,-99.99,873.760010,,2013-03-17 19:42:00,
2013-03-17 13:53:00,75.0,22.0,29.83,West,273,17.0,29.0,13,-99.99,,,-99.99,873.760010,,2013-03-17 19:53:00,
2013-03-17 14:02:00,74.0,22.0,29.82,West,278,14.0,23.0,13,-99.99,,,-99.99,884.219971,,2013-03-17 20:02:00,
2013-03-17 14:12:00,75.0,21.0,29.81,West,276,19.0,29.0,12,-99.99,,,-99.99,877.940002,,2013-03-17 20:12:00,
2013-03-17 14:22:00,75.0,21.0,29.81,West,276,19.0,29.0,12,-99.99,,,-99.99,877.940002,,2013-03-17 20:22:00,
2013-03-17 14:32:00,75.0,21.0,29.81,West,276,19.0,29.0,12,-99.99,,,-99.99,877.940002,,2013-03-17 20:32:00,
2013-03-17 14:42:00,76.0,21.0,29.79,West,267,13.0,24.0,12,-99.99,,,-99.99,861.210022,,2013-03-17 20:42:00,
2013-03-17 14:52:00,76.0,21.0,29.79,West,267,13.0,24.0,12,-99.99,,,-99.99,861.210022,,2013-03-17 20:52:00,
2013-03-17 15:03:00,76.0,20.0,29.78,West,275,16.0,30.0,12,-99.99,,,-99.99,776.130005,,2013-03-17 21:03:00,
2013-03-17 15:12:00,76.0,20.0,29.78,West,275,16.0,30.0,12,-99.99,,,-99.99,776.130005,,2013-03-17 21:12:00,
2013-03-17 15:22:00,76.0,20.0,29.78,West,275,16.0,30.0,12,-99.99,,,-99.99,776.130005,,2013-03-17 21:22:00,
2013-03-17 15:33:00,77.0,21.0,29.75,West,260,20.0,37.0,12,-99.99,,,-99.99,760.789978,,2013-03-17 21:33:00,
2013-03-17 15:43:00,78.0,20.0,29.75,West,267,25.0,44.0,11,-99.99,,,-99.99,752.419983,,2013-03-17 21:43:00,
2013-03-17 15:52:00,78.0,20.0,29.75,West,267,25.0,44.0,11,-99.99,,,-99.99,752.419983,,2013-03-17 21:52:00,
2013-03-17 16:03:00,77.0,19.0,29.74,West,270,25.0,36.0,11,-99.99,,,-99.99,714.070007,,2013-03-17 22:03:00,
2013-03-17 16:12:00,77.0,19.0,29.74,West,267,27.0,42.0,11,-99.99,,,-99.99,681.989990,,2013-03-17 22:12:00,
2013-03-17 16:23:00,77.0,19.0,29.74,West,267,27.0,42.0,11,-99.99,,,-99.99,681.989990,,2013-03-17 22:23:00,
2013-03-17 16:33:00,77.0,19.0,29.74,West,276,25.0,44.0,11,-99.99,,,-99.99,646.429993,,2013-03-17 22:33:00,
2013-03-17 16:42:00,77.0,19.0,29.74,West,272,25.0,38.0,11,-99.99,,,-99.99,582.969971,,2013-03-17 22:42:00,
2013-03-17 16:53:00,77.0,19.0,29.74,West,272,25.0,38.0,11,-99.99,,,-99.99,582.969971,,2013-03-17 22:53:00,
2013-03-17 17:02:00,77.0,19.0,29.74,WNW,282,24.0,39.0,11,-99.99,,,-99.99,497.200012,,2013-03-17 23:02:00,
2013-03-17 17:12:00,76.0,19.0,29.74,WNW,284,25.0,38.0,11,-99.99,,,-99.99,347.269989,,2013-03-17 23:12:00,
2013-03-17 17:22:00,76.0,19.0,29.74,WNW,284,25.0,38.0,11,-99.99,,,-99.99,347.269989,,2013-03-17 23:22:00,
2013-03-17 17:33:00,76.0,19.0,29.74,West,280,24.0,37.0,11,-99.99,,,-99.99,352.149994,,2013-03-17 23:33:00,
2013-03-17 17:42:00,76.0,18.0,29.74,West,280,27.0,42.0,10,-99.99,,,-99.99,387.720001,,2013-03-17 23:42:00,
2013-03-17 17:53:00,76.0,18.0,29.74,West,280,27.0,42.0,10,-99.99,,,-99.99,387.720001,,2013-03-17 23:53:00,
2013-03-17 18:03:00,76.0,17.0,29.74,West,274,26.0,44.0,10,-99.99,,,-99.99,322.170013,,2013-03-18 00:03:00,
2013-03-17 18:12:00,76.0,17.0,29.74,WNW,285,22.0,34.0,10,-99.99,,,-99.99,288.000000,,2013-03-18 00:12:00,
2013-03-17 18:22:00,76.0,17.0,29.74,WNW,285,22.0,34.0,10,-99.99,,,-99.99,288.000000,,2013-03-18 00:22:00,
2013-03-17 18:33:00,76.0,17.0,29.74,West,280,23.0,39.0,10,-99.99,,,-99.99,236.399994,,2013-03-18 00:33:00,
2013-03-17 18:42:00,75.0,16.0,29.74,WNW,283,25.0,38.0,10,-99.99,,,-99.99,178.520004,,2013-03-18 00:42:00,
2013-03-17 18:53:00,75.0,16.0,29.74,WNW,283,25.0,38.0,10,-99.99,,,-99.99,178.520004,,2013-03-18 00:53:00,
2013-03-17 19:02:00,75.0,15.0,29.75,West,276,26.0,39.0,10,-99.99,,,-99.99,129.699997,,2013-03-18 01:02:00,
2013-03-17 19:12:00,74.0,15.0,29.75,West,276,23.0,38.0,10,-99.99,,,-99.99,85.070000,,2013-03-18 01:12:00,
2013-03-17 19:22:00,74.0,15.0,29.75,West,276,23.0,38.0,10,-99.99,,,-99.99,85.070000,,2013-03-18 01:22:00,
2013-03-17 19:32:00,74.0,16.0,29.75,West,275,26.0,39.0,11,-99.99,,,-99.99,27.200001,,2013-03-18 01:32:00,
2013-03-17 19:42:00,73.0,16.0,29.76,West,271,23.0,35.0,11,-99.99,,,-99.99,9.070000,,2013-03-18 01:42:00,
2013-03-17 19:52:00,73.0,16.0,29.76,West,271,23.0,35.0,11,-99.99,,,-99.99,9.070000,,2013-03-18 01:52:00,
2013-03-17 20:02:00,73.0,15.0,29.76,West,280,21.0,32.0,10,-99.99,,,-99.99,1.390000,,2013-03-18 02:02:00,
2013-03-17 20:12:00,73.0,14.0,29.77,West,279,19.0,32.0,10,-99.99,,,-99.99,0.000000,,2013-03-18 02:12:00,
2013-03-17 20:22:00,73.0,14.0,29.77,West,279,19.0,32.0,10,-99.99,,,-99.99,0.000000,,2013-03-18 02:22:00,
2013-03-17 20:32:00,72.0,13.0,29.78,West,277,21.0,34.0,9,-99.99,,,-99.99,0.000000,,2013-03-18 02:32:00,
2013-03-17 20:42:00,72.0,13.0,29.78,West,277,21.0,33.0,10,-99.99,,,-99.99,0.000000,,2013-03-18 02:42:00,
2013-03-17 20:52:00,72.0,13.0,29.78,West,277,21.0,33.0,10,-99.99,,,-99.99,0.000000,,2013-03-18 02:52:00,
2013-03-17 21:02:00,72.0,13.0,29.79,West,278,22.0,31.0,10,-99.99,,,-99.99,0.000000,,2013-03-18 03:02:00,
2013-03-17 21:11:00,71.0,13.0,29.80,West,279,21.0,31.0,10,-99.99,,,-99.99,0.000000,,2013-03-18 03:11:00,
2013-03-17 21:22:00,71.0,13.0,29.80,West,279,21.0,31.0,10,-99.99,,,-99.99,0.000000,,2013-03-18 03:22:00,
2013-03-17 21:33:00,71.0,12.0,29.80,WNW,283,20.0,31.0,10,-99.99,,,-99.99,0.000000,,2013-03-18 03:33:00,
2013-03-17 21:42:00,71.0,12.0,29.80,WNW,283,20.0,31.0,10,-99.99,,,-99.99,0.000000,,2013-03-18 03:42:00,
2013-03-17 21:53:00,71.0,12.0,29.80,WNW,283,20.0,31.0,10,-99.99,,,-99.99,0.000000,,2013-03-18 03:53:00,
2013-03-17 22:03:00,71.0,13.0,29.82,WNW,289,19.0,32.0,10,-99.99,,,-99.99,0.000000,,2013-03-18 04:03:00,
2013-03-17 22:13:00,70.0,13.0,29.82,WNW,293,18.0,34.0,10,-99.99,,,-99.99,0.000000,,2013-03-18 04:13:00,
2013-03-17 22:23:00,70.0,13.0,29.82,WNW,293,18.0,34.0,10,-99.99,,,-99.99,0.000000,,2013-03-18 04:23:00,
2013-03-17 22:33:00,70.0,13.0,29.82,WNW,287,19.0,32.0,10,-99.99,,,-99.99,0.000000,,2013-03-18 04:33:00,
2013-03-17 22:42:00,70.0,13.0,29.83,WNW,287,18.0,32.0,10,-99.99,,,-99.99,0.000000,,2013-03-18 04:42:00,
2013-03-17 22:53:00,70.0,13.0,29.83,WNW,287,18.0,32.0,10,-99.99,,,-99.99,0.000000,,2013-03-18 04:53:00,
2013-03-17 23:02:00,69.0,13.0,29.83,WNW,286,18.0,34.0,11,-99.99,,,-99.99,0.000000,,2013-03-18 05:02:00,
2013-03-17 23:12:00,70.0,13.0,29.83,WNW,285,21.0,37.0,11,-99.99,,,-99.99,0.000000,,2013-03-18 05:12:00,
2013-03-17 23:22:00,70.0,13.0,29.83,WNW,285,21.0,37.0,11,-99.99,,,-99.99,0.000000,,2013-03-18 05:22:00,
2013-03-17 23:32:00,69.0,13.0,29.84,WNW,288,20.0,30.0,11,-99.99,,,-99.99,0.000000,,2013-03-18 05:32:00,
2013-03-17 23:43:00,69.0,13.0,29.84,WNW,286,21.0,33.0,11,-99.99,,,-99.99,0.000000,,2013-03-18 05:43:00,
2013-03-17 23:52:00,69.0,13.0,29.84,WNW,286,21.0,33.0,11,-99.99,,,-99.99,0.000000,,2013-03-18 05:52:00,